createdAt,value
2022-08-18T00:02:13.788Z,82.80
2022-08-18T00:04:49.022Z,84.36
2022-08-18T00:07:21.473Z,84.06
2022-08-18T00:09:49.605Z,84.63
2022-08-18T00:12:19.670Z,84.31
2022-08-18T00:14:47.809Z,84.47
2022-08-18T00:17:16.246Z,84.27
2022-08-18T00:19:46.316Z,84.77
2022-08-18T00:22:16.866Z,85.27
2022-08-18T00:24:48.448Z,85.27
2022-08-18T00:27:22.970Z,84.99
2022-08-18T00:29:52.269Z,85.08
2022-08-18T00:32:21.804Z,85.61
2022-08-18T00:34:49.894Z,85.78
2022-08-18T00:37:18.077Z,86.34
2022-08-18T00:39:48.222Z,86.98
2022-08-18T00:42:26.933Z,86.75
2022-08-18T00:44:58.480Z,86.41
2022-08-18T00:47:41.194Z,86.83
2022-08-18T00:50:15.781Z,86.84
2022-08-18T00:52:46.519Z,87.13
2022-08-18T00:55:18.135Z,87.73
2022-08-18T00:57:46.692Z,87.65
2022-08-18T01:00:15.708Z,88.37
2022-08-18T01:02:44.680Z,87.29
2022-08-18T01:05:17.337Z,88.13
2022-08-18T01:07:47.811Z,87.48
2022-08-18T01:10:19.113Z,88.67
2022-08-18T01:12:48.680Z,88.86
2022-08-18T01:15:29.432Z,88.25
2022-08-18T01:18:17.084Z,88.92
2022-08-18T01:21:06.080Z,88.63
2022-08-18T01:23:35.690Z,88.79
2022-08-18T01:26:04.476Z,89.37
2022-08-18T01:28:33.903Z,89.62
2022-08-18T01:31:02.273Z,89.72
2022-08-18T01:33:32.836Z,89.43
2022-08-18T01:36:02.727Z,89.88
2022-08-18T01:38:32.212Z,90.53
2022-08-18T01:41:26.908Z,90.29
2022-08-18T01:43:50.287Z,90.51
2022-08-18T01:46:20.122Z,90.22
2022-08-18T01:48:48.393Z,90.65
2022-08-18T01:51:16.695Z,90.84
2022-08-18T01:53:45.271Z,90.50
2022-08-18T01:56:17.738Z,91.37
2022-08-18T01:58:47.777Z,91.16
2022-08-18T02:01:16.161Z,91.06
2022-08-18T02:03:46.798Z,91.33
2022-08-18T02:06:17.085Z,91.61
2022-08-18T02:08:46.505Z,90.94
2022-08-18T02:11:23.315Z,91.62
2022-08-18T02:13:51.675Z,90.97
2022-08-18T02:16:19.863Z,91.98
2022-08-18T02:18:48.952Z,92.29
2022-08-18T02:21:19.381Z,92.60
2022-08-18T02:23:52.989Z,91.94
2022-08-18T02:26:23.546Z,92.84
2022-08-18T02:28:51.697Z,93.18
2022-08-18T02:31:21.085Z,93.42
2022-08-18T02:33:52.236Z,92.95
2022-08-18T02:36:21.269Z,93.16
2022-08-18T02:38:54.795Z,93.24
2022-08-18T02:41:30.162Z,94.03
2022-08-18T02:43:58.579Z,94.06
2022-08-18T02:46:29.960Z,94.55
2022-08-18T02:49:00.474Z,94.06
2022-08-18T02:51:28.662Z,94.67
2022-08-18T02:53:59.342Z,94.18
2022-08-18T02:56:41.458Z,94.06
2022-08-18T02:59:12.435Z,94.25
2022-08-18T03:01:41.870Z,95.03
2022-08-18T03:04:11.140Z,95.12
2022-08-18T03:06:39.523Z,95.17
2022-08-18T03:09:08.589Z,95.02
2022-08-18T03:11:38.271Z,95.46
2022-08-18T03:14:08.703Z,94.96
2022-08-18T03:16:52.642Z,95.62
2022-08-18T03:19:23.991Z,96.17
2022-08-18T03:21:52.907Z,95.72
2022-08-18T03:24:22.898Z,95.99
2022-08-18T03:26:53.922Z,96.15
2022-08-18T03:29:22.457Z,96.60
2022-08-18T03:31:50.723Z,97.02
2022-08-18T03:34:20.711Z,97.12
2022-08-18T03:36:49.335Z,96.59
2022-08-18T03:39:17.721Z,97.09
2022-08-18T03:41:58.617Z,97.31
2022-08-18T03:44:31.640Z,97.38
2022-08-18T03:47:00.297Z,97.21
2022-08-18T03:49:28.455Z,97.62
2022-08-18T03:51:57.132Z,97.57
2022-08-18T03:54:25.650Z,98.15
2022-08-18T03:56:54.464Z,97.19
2022-08-18T03:59:24.090Z,97.17
2022-08-18T04:01:55.085Z,96.84
2022-08-18T04:04:24.394Z,97.84
2022-08-18T04:06:55.417Z,98.23
2022-08-18T04:09:24.572Z,98.32
2022-08-18T04:11:53.029Z,98.44
2022-08-18T04:14:21.899Z,98.48
2022-08-18T04:16:50.152Z,98.66
2022-08-18T04:19:26.520Z,99.02
2022-08-18T04:21:56.173Z,98.52
2022-08-18T04:24:26.180Z,98.37
2022-08-18T04:26:54.846Z,98.08
2022-08-18T04:29:23.098Z,97.95
2022-08-18T04:31:52.019Z,98.03
2022-08-18T04:34:22.915Z,97.45
2022-08-18T04:36:54.049Z,97.63
2022-08-18T04:39:22.922Z,97.16
2022-08-18T04:41:51.277Z,98.03
2022-08-18T04:44:19.641Z,97.99
2022-08-18T04:46:49.387Z,97.09
2022-08-18T04:49:17.993Z,97.48
2022-08-18T04:52:31.039Z,97.66
2022-08-18T04:54:57.051Z,94.41
2022-08-18T04:57:26.301Z,95.54
2022-08-18T04:59:54.579Z,95.55
2022-08-18T05:02:24.348Z,95.22
2022-08-18T05:04:52.727Z,94.74
2022-08-18T05:07:22.790Z,94.14
2022-08-18T05:09:52.058Z,95.20
2022-08-18T05:12:20.419Z,96.17
2022-08-18T05:14:53.995Z,95.44
2022-08-18T05:17:22.258Z,94.50
2022-08-18T05:19:52.156Z,93.07
2022-08-18T05:22:26.464Z,91.85
2022-08-18T05:24:58.311Z,91.38
2022-08-18T05:27:26.511Z,92.78
2022-08-18T05:29:55.495Z,93.79
2022-08-18T05:32:36.954Z,92.14
2022-08-18T05:35:14.233Z,91.57
2022-08-18T05:37:48.503Z,91.19
2022-08-18T05:40:16.813Z,91.91
2022-08-18T05:42:45.043Z,91.38
2022-08-18T05:45:17.691Z,90.80
2022-08-18T05:47:45.915Z,91.47
2022-08-18T05:50:16.594Z,91.04
2022-08-18T05:52:51.047Z,90.07
2022-08-18T05:55:39.583Z,88.89
2022-08-18T05:58:11.450Z,89.48
2022-08-18T06:00:40.496Z,90.48
2022-08-18T06:03:10.201Z,90.61
2022-08-18T06:05:42.112Z,90.55
2022-08-18T06:08:13.597Z,89.82
2022-08-18T06:10:44.023Z,89.13
2022-08-18T06:13:12.477Z,89.38
2022-08-18T06:15:49.764Z,88.90
2022-08-18T06:18:30.835Z,88.09
2022-08-18T06:21:11.643Z,86.75
2022-08-18T06:23:43.709Z,89.16
2022-08-18T06:26:15.269Z,88.88
2022-08-18T06:29:01.002Z,89.94
2022-08-18T06:31:31.906Z,87.98
2022-08-18T06:34:05.113Z,89.59
2022-08-18T06:36:39.094Z,90.20
2022-08-18T06:39:13.235Z,89.81
2022-08-18T06:41:44.418Z,88.92
2022-08-18T06:44:15.131Z,88.94
2022-08-18T06:46:46.017Z,88.37
2022-08-18T06:49:22.992Z,89.98
2022-08-18T06:51:51.338Z,90.41
2022-08-18T06:54:31.501Z,89.09
2022-08-18T06:56:59.930Z,88.69
2022-08-18T06:59:30.784Z,88.53
2022-08-18T07:02:02.061Z,87.62
2022-08-18T07:04:36.819Z,88.33
2022-08-18T07:07:17.517Z,86.68
2022-08-18T07:09:47.114Z,84.72
2022-08-18T07:12:22.290Z,83.89
2022-08-18T07:14:51.813Z,76.42
2022-08-18T07:17:43.351Z,76.25
2022-08-18T07:20:20.386Z,77.46
2022-08-18T07:22:56.150Z,77.57
2022-08-18T07:25:27.713Z,79.11
2022-08-18T07:27:57.192Z,82.66
2022-08-18T07:30:34.085Z,82.40
2022-08-18T07:33:08.261Z,83.13
2022-08-18T07:35:39.393Z,83.69
2022-08-18T07:38:40.895Z,88.54
2022-08-18T07:41:02.981Z,93.34
2022-08-18T07:43:35.512Z,91.31
2022-08-18T07:46:06.525Z,92.47
2022-08-18T07:48:38.524Z,94.91
2022-08-18T07:51:13.727Z,94.92
2022-08-18T07:53:55.738Z,94.24
2022-08-18T07:56:33.905Z,95.76
2022-08-18T07:59:04.585Z,97.40
2022-08-18T08:01:35.287Z,98.18
2022-08-18T08:04:08.566Z,100.00
2022-08-18T08:06:40.375Z,100.00
2022-08-18T08:09:12.717Z,98.24
2022-08-18T08:11:49.761Z,99.05
2022-08-18T08:14:28.002Z,99.06
2022-08-18T08:17:00.968Z,100.00
2022-08-18T08:20:00.363Z,100.00
2022-08-18T08:22:32.173Z,100.00
2022-08-18T08:25:10.735Z,100.00
2022-08-18T08:28:00.450Z,100.00
2022-08-18T08:30:29.298Z,97.93
2022-08-18T08:33:03.536Z,96.98
2022-08-18T08:35:48.965Z,99.11
2022-08-18T08:38:40.354Z,98.30
2022-08-18T08:41:11.139Z,96.76
2022-08-18T08:43:42.675Z,96.17
2022-08-18T08:46:12.415Z,95.96
2022-08-18T08:48:42.443Z,96.04
2022-08-18T08:51:20.763Z,94.69
2022-08-18T08:53:50.508Z,90.45
2022-08-18T08:56:20.168Z,91.69
2022-08-18T08:58:50.613Z,93.40
2022-08-18T09:01:24.808Z,92.74
2022-08-18T09:03:57.200Z,93.27
2022-08-18T09:06:26.904Z,91.56
2022-08-18T09:09:16.211Z,90.53
2022-08-18T09:12:07.030Z,87.59
2022-08-18T09:14:56.283Z,86.34
2022-08-18T09:17:42.538Z,85.29
2022-08-18T09:20:25.781Z,89.19
2022-08-18T09:22:55.651Z,88.33
2022-08-18T09:25:35.249Z,82.91
2022-08-18T09:28:12.383Z,82.94
2022-08-18T09:30:47.511Z,84.91
2022-08-18T09:33:34.908Z,86.43
2022-08-18T09:39:40.230Z,82.50
2022-08-18T09:42:10.563Z,81.44
2022-08-18T09:44:58.621Z,82.04
2022-08-18T09:48:00.626Z,81.67
2022-08-18T09:50:57.175Z,79.77
2022-08-18T09:53:38.058Z,78.85
2022-08-18T09:56:08.208Z,79.54
2022-08-18T09:58:56.643Z,81.81
2022-08-18T10:01:34.542Z,80.57
2022-08-18T10:04:32.329Z,79.25
2022-08-18T10:07:35.446Z,80.66
2022-08-18T10:10:58.831Z,82.04
2022-08-18T10:13:05.150Z,85.14
2022-08-18T10:15:40.804Z,86.94
2022-08-18T10:18:41.358Z,87.94
2022-08-18T10:21:12.988Z,89.74
2022-08-18T10:24:03.123Z,87.39
2022-08-18T10:27:10.958Z,85.49
2022-08-18T10:30:01.872Z,88.27
2022-08-18T10:32:44.328Z,89.23
2022-08-18T10:35:58.387Z,91.04
2022-08-18T10:38:49.344Z,92.60
2022-08-18T10:41:25.191Z,93.85
2022-08-18T10:43:55.456Z,92.52
2022-08-18T10:46:30.670Z,90.80
2022-08-18T10:49:09.413Z,91.29
2022-08-18T10:52:00.118Z,90.29
2022-08-18T10:54:34.063Z,89.62
2022-08-18T10:57:09.438Z,89.16
2022-08-18T10:59:48.975Z,88.46
2022-08-18T11:02:40.039Z,91.12
2022-08-18T11:05:11.021Z,89.34
2022-08-18T11:07:44.666Z,88.31
2022-08-18T11:10:57.636Z,88.52
2022-08-18T11:13:10.880Z,88.01
2022-08-18T11:15:48.953Z,87.83
2022-08-18T11:18:30.276Z,87.47
2022-08-18T11:21:27.076Z,88.68
2022-08-18T11:24:10.183Z,88.63
2022-08-18T11:26:39.614Z,89.28
2022-08-18T11:29:23.303Z,89.64
2022-08-18T11:31:53.497Z,90.28
2022-08-18T11:34:26.981Z,91.71
2022-08-18T11:36:59.335Z,93.66
2022-08-18T11:39:37.731Z,98.27
2022-08-18T11:42:07.552Z,100.00
2022-08-18T11:44:45.219Z,100.00
2022-08-18T11:47:17.124Z,100.00
2022-08-18T11:49:58.297Z,100.00
2022-08-18T11:55:24.390Z,100.00
2022-08-18T11:57:56.072Z,100.00
2022-08-18T12:01:02.907Z,100.00
2022-08-18T12:03:36.444Z,100.00
2022-08-18T12:06:19.407Z,100.00
2022-08-18T12:08:59.519Z,100.00
2022-08-18T12:11:29.481Z,100.00
2022-08-18T12:14:01.983Z,100.00
2022-08-18T12:16:54.047Z,100.00
2022-08-18T12:19:24.233Z,100.00
2022-08-18T12:21:54.517Z,100.00
2022-08-18T12:24:26.188Z,100.00
2022-08-18T12:27:00.923Z,100.00
2022-08-18T12:29:36.690Z,100.00
2022-08-18T12:32:18.044Z,100.00
2022-08-18T12:35:07.172Z,100.00
2022-08-18T12:40:26.931Z,100.00
2022-08-18T12:42:55.184Z,100.00
2022-08-18T12:45:25.881Z,100.00
2022-08-18T12:47:57.119Z,100.00
2022-08-18T12:50:31.120Z,100.00
2022-08-18T12:53:00.896Z,100.00
2022-08-18T12:55:29.768Z,100.00
2022-08-18T12:57:57.928Z,100.00
2022-08-18T13:00:28.978Z,100.00
2022-08-18T13:02:59.330Z,100.00
2022-08-18T13:05:30.091Z,100.00
2022-08-18T13:07:59.381Z,100.00
2022-08-18T13:10:45.689Z,100.00
2022-08-18T13:13:16.497Z,100.00
2022-08-18T13:15:57.913Z,100.00
2022-08-18T13:18:29.457Z,100.00
2022-08-18T13:20:58.341Z,100.00
2022-08-18T13:23:27.616Z,100.00
2022-08-18T13:26:01.465Z,100.00
2022-08-18T13:28:33.378Z,100.00
2022-08-18T13:31:04.238Z,100.00
2022-08-18T13:33:56.662Z,99.67
2022-08-18T13:36:23.511Z,100.00
2022-08-18T13:38:54.490Z,99.25
2022-08-18T13:43:52.825Z,97.96
2022-08-18T13:46:24.283Z,96.63
2022-08-18T13:49:02.395Z,96.27
2022-08-18T13:51:31.550Z,97.00
2022-08-18T13:54:26.592Z,94.99
2022-08-18T13:56:51.800Z,95.88
2022-08-18T13:59:20.825Z,94.09
2022-08-18T14:01:52.555Z,94.47
2022-08-18T14:04:27.901Z,92.70
2022-08-18T14:07:00.472Z,92.26
2022-08-18T14:09:36.120Z,92.19
2022-08-18T14:12:06.735Z,91.60
2022-08-18T14:14:44.793Z,90.55
2022-08-18T14:17:15.093Z,91.33
2022-08-18T14:20:02.942Z,89.97
2022-08-18T14:22:48.308Z,90.42
2022-08-18T14:25:34.086Z,89.62
2022-08-18T14:28:03.900Z,90.51
2022-08-18T14:30:32.477Z,89.39
2022-08-18T14:33:01.223Z,88.28
2022-08-18T14:36:04.392Z,91.42
2022-08-18T14:38:19.375Z,87.78
2022-08-18T14:40:47.858Z,85.06
2022-08-18T14:43:16.832Z,85.59
2022-08-18T14:45:48.884Z,85.40
2022-08-18T14:48:19.127Z,85.46
2022-08-18T14:50:50.323Z,85.87
2022-08-18T14:53:20.326Z,85.60
2022-08-18T14:55:52.218Z,84.85
2022-08-18T14:58:20.757Z,84.33
2022-08-18T15:00:53.743Z,83.45
2022-08-18T15:03:30.972Z,80.58
2022-08-18T15:06:04.668Z,81.23
2022-08-18T15:08:35.417Z,80.21
2022-08-18T15:11:06.162Z,80.36
2022-08-18T15:13:41.486Z,80.27
2022-08-18T15:16:13.825Z,79.80
2022-08-18T15:18:42.196Z,80.92
2022-08-18T15:21:35.537Z,81.52
2022-08-18T15:24:24.826Z,82.16
2022-08-18T15:26:57.408Z,81.11
2022-08-18T15:29:29.180Z,79.14
2022-08-18T15:32:05.608Z,79.92
2022-08-18T15:34:46.909Z,79.91
2022-08-18T15:37:24.284Z,82.29
2022-08-18T15:40:05.407Z,80.77
2022-08-18T15:42:33.741Z,80.52
2022-08-18T15:45:12.108Z,80.52
2022-08-18T15:47:42.376Z,81.06
2022-08-18T15:50:25.543Z,81.10
2022-08-18T15:52:58.018Z,81.93
2022-08-18T15:55:28.869Z,81.51
2022-08-18T15:57:58.289Z,83.90
2022-08-18T16:00:27.551Z,82.22
2022-08-18T16:02:58.286Z,82.95
2022-08-18T16:05:28.637Z,82.75
2022-08-18T16:08:01.415Z,82.08
2022-08-18T16:10:33.416Z,83.09
2022-08-18T16:13:04.939Z,83.83
2022-08-18T16:15:36.909Z,83.70
2022-08-18T16:18:05.677Z,83.90
2022-08-18T16:20:33.955Z,83.71
2022-08-18T16:23:03.615Z,84.47
2022-08-18T16:25:32.133Z,83.87
2022-08-18T16:28:00.504Z,85.33
2022-08-18T16:30:29.358Z,85.14
2022-08-18T16:33:01.385Z,85.88
2022-08-18T16:35:29.550Z,84.71
2022-08-18T16:37:58.330Z,85.15
2022-08-18T16:40:29.884Z,86.08
2022-08-18T16:43:00.913Z,86.13
2022-08-18T16:45:29.063Z,86.53
2022-08-18T16:47:57.313Z,86.72
2022-08-18T16:50:26.077Z,87.63
2022-08-18T16:52:54.379Z,87.58
2022-08-18T16:55:23.048Z,86.99
2022-08-18T16:58:13.576Z,87.32
2022-08-18T17:01:00.507Z,87.71
2022-08-18T17:03:45.971Z,88.29
2022-08-18T17:06:15.533Z,89.09
2022-08-18T17:08:43.889Z,86.98
2022-08-18T17:11:13.925Z,88.67
2022-08-18T17:13:43.582Z,88.56
2022-08-18T17:16:11.820Z,89.26
2022-08-18T17:18:40.018Z,88.82
2022-08-18T17:21:09.163Z,89.27
2022-08-18T17:23:38.787Z,90.35
2022-08-18T17:26:07.678Z,90.09
2022-08-18T17:28:50.320Z,90.12
2022-08-18T17:31:20.999Z,90.39
2022-08-18T17:33:49.067Z,89.72
2022-08-18T17:36:20.659Z,91.31
2022-08-18T17:38:57.398Z,91.01
2022-08-18T17:41:26.026Z,90.98
2022-08-18T17:43:56.259Z,92.04
2022-08-18T17:46:32.264Z,92.02
2022-08-18T17:49:02.146Z,91.62
2022-08-18T17:51:37.427Z,91.45
2022-08-18T17:54:29.743Z,91.74
2022-08-18T17:57:01.550Z,92.92
2022-08-18T17:59:51.066Z,92.96
2022-08-18T18:02:29.672Z,93.29
2022-08-18T18:05:00.103Z,93.41
2022-08-18T18:07:30.492Z,93.27
2022-08-18T18:10:00.784Z,93.91
2022-08-18T18:12:29.953Z,94.25
2022-08-18T18:14:58.479Z,94.26
2022-08-18T18:17:29.783Z,94.04
2022-08-18T18:20:15.718Z,94.59
2022-08-18T18:22:44.558Z,94.44
2022-08-18T18:25:13.666Z,94.93
2022-08-18T18:27:43.741Z,95.33
2022-08-18T18:30:27.841Z,94.72
2022-08-18T18:33:00.213Z,96.04
2022-08-18T18:35:29.091Z,96.01
2022-08-18T18:37:58.228Z,95.90
2022-08-18T18:40:29.344Z,96.41
2022-08-18T18:42:57.726Z,96.57
2022-08-18T18:45:28.309Z,97.03
2022-08-18T18:48:05.558Z,96.37
2022-08-18T18:50:55.516Z,97.60
2022-08-18T18:53:28.500Z,97.63
2022-08-18T18:56:02.527Z,98.28
2022-08-18T18:58:37.587Z,97.80
2022-08-18T19:01:07.916Z,98.24
2022-08-18T19:03:38.886Z,98.25
2022-08-18T19:06:14.483Z,98.72
2022-08-18T19:08:46.546Z,99.41
2022-08-18T19:11:17.589Z,100.00
2022-08-18T19:13:54.156Z,100.00
2022-08-18T19:16:24.679Z,100.00
2022-08-18T19:18:57.844Z,100.00
2022-08-18T19:22:05.815Z,100.00
2022-08-18T19:24:31.236Z,100.00
2022-08-18T19:27:01.713Z,100.00
2022-08-18T19:29:31.661Z,100.00
2022-08-18T19:32:05.315Z,100.00
2022-08-18T19:34:37.591Z,100.00
2022-08-18T19:37:26.713Z,100.00
2022-08-18T19:40:04.408Z,100.00
2022-08-18T19:42:35.521Z,100.00
2022-08-18T19:45:16.499Z,100.00
2022-08-18T19:47:48.003Z,100.00
2022-08-18T19:50:20.143Z,100.00
2022-08-18T19:52:59.790Z,100.00
2022-08-18T19:55:33.472Z,100.00
2022-08-18T19:58:12.247Z,100.00
2022-08-18T20:00:44.885Z,100.00
2022-08-18T20:03:40.202Z,100.00
2022-08-18T20:06:34.529Z,100.00
2022-08-18T20:09:25.295Z,100.00
2022-08-18T20:12:17.581Z,100.00
2022-08-18T20:14:45.851Z,100.00
2022-08-18T20:17:19.989Z,100.00
2022-08-18T20:20:06.038Z,100.00
2022-08-18T20:22:39.124Z,100.00
2022-08-18T20:25:21.552Z,100.00
2022-08-18T20:27:51.244Z,100.00
2022-08-18T20:30:24.721Z,100.00
2022-08-18T20:33:10.816Z,100.00
2022-08-18T20:35:40.929Z,100.00
2022-08-18T20:38:16.343Z,100.00
2022-08-18T20:40:45.343Z,100.00
2022-08-18T20:43:27.634Z,100.00
2022-08-18T20:46:07.813Z,100.00
2022-08-18T20:48:44.143Z,100.00
2022-08-18T20:51:12.622Z,100.00
2022-08-18T20:54:01.363Z,100.00
2022-08-18T20:56:43.430Z,100.00
2022-08-18T20:59:20.282Z,100.00
2022-08-18T21:01:56.122Z,100.00
2022-08-18T21:04:49.513Z,100.00
2022-08-18T21:07:36.271Z,100.00
2022-08-18T21:10:12.680Z,100.00
2022-08-18T21:12:52.456Z,100.00
2022-08-18T21:15:21.849Z,100.00
2022-08-18T21:17:58.137Z,100.00
2022-08-18T21:20:26.374Z,100.00
2022-08-18T21:23:05.132Z,100.00
2022-08-18T21:25:34.661Z,100.00
2022-08-18T21:28:03.960Z,100.00
2022-08-18T21:30:33.025Z,100.00
2022-08-18T21:33:02.103Z,100.00
2022-08-18T21:35:32.642Z,100.00
2022-08-18T21:38:01.762Z,100.00
2022-08-18T21:40:32.346Z,100.00
2022-08-18T21:43:02.066Z,100.00
2022-08-18T21:45:30.391Z,100.00
2022-08-18T21:47:59.907Z,100.00
2022-08-18T21:50:29.607Z,100.00
2022-08-18T21:52:58.767Z,100.00
2022-08-18T21:55:30.358Z,100.00
2022-08-18T21:58:05.843Z,100.00
2022-08-18T22:00:35.992Z,100.00
2022-08-18T22:03:21.809Z,100.00
2022-08-18T22:05:59.908Z,100.00
2022-08-18T22:08:29.432Z,100.00
2022-08-18T22:11:44.204Z,100.00
2022-08-18T22:14:36.254Z,100.00
2022-08-18T22:17:29.158Z,100.00
2022-08-18T22:19:57.667Z,100.00
2022-08-18T22:22:43.515Z,100.00
2022-08-18T22:25:12.230Z,100.00
2022-08-18T22:27:40.465Z,100.00
2022-08-18T22:30:10.679Z,100.00
2022-08-18T22:32:39.322Z,100.00
2022-08-18T22:35:09.086Z,100.00
2022-08-18T22:37:40.853Z,100.00
2022-08-18T22:40:10.711Z,100.00
2022-08-18T22:42:38.998Z,100.00
2022-08-18T22:45:12.367Z,100.00
2022-08-18T22:47:43.676Z,100.00
2022-08-18T22:50:13.529Z,100.00
2022-08-18T22:52:42.829Z,100.00
2022-08-18T22:55:12.535Z,100.00
2022-08-18T22:57:41.077Z,100.00
2022-08-18T23:00:14.543Z,100.00
2022-08-18T23:02:43.123Z,100.00
2022-08-18T23:05:12.038Z,100.00
2022-08-18T23:07:40.202Z,100.00
2022-08-18T23:10:13.597Z,100.00
2022-08-18T23:12:42.722Z,100.00
2022-08-18T23:15:12.571Z,100.00
2022-08-18T23:17:40.756Z,100.00
2022-08-18T23:20:11.411Z,100.00
2022-08-18T23:22:39.855Z,100.00
2022-08-18T23:25:09.487Z,100.00
2022-08-18T23:27:37.974Z,100.00
2022-08-18T23:30:06.871Z,100.00
2022-08-18T23:32:36.550Z,100.00
2022-08-18T23:35:05.179Z,100.00
2022-08-18T23:37:33.355Z,100.00
2022-08-18T23:40:01.594Z,100.00
2022-08-18T23:42:31.648Z,100.00
2022-08-18T23:45:03.235Z,100.00
2022-08-18T23:47:31.383Z,100.00
2022-08-18T23:50:01.715Z,100.00
2022-08-18T23:52:29.872Z,100.00
2022-08-18T23:54:57.931Z,100.00
2022-08-18T23:57:26.124Z,100.00
2022-08-18T23:59:54.559Z,100.00
